sensor_id;sensor_type;location;lat;lon;timestamp;P1;durP1;ratioP1;P2;durP2;ratioP2
55015;SDS011;40919;43.236;21.590;2023-05-07T18:18:57;21.75;;;16.95;;
55015;SDS011;40919;43.236;21.590;2023-05-07T18:30:21;27.70;;;21.85;;
55015;SDS011;40919;43.236;21.590;2023-05-07T18:32:54;29.85;;;26.85;;
55015;SDS011;40919;43.236;21.590;2023-05-07T18:35:20;25.58;;;21.75;;
55015;SDS011;40919;43.236;21.590;2023-05-07T18:38:25;25.73;;;18.15;;
55015;SDS011;40919;43.236;21.590;2023-05-07T18:41:11;20.80;;;16.65;;
55015;SDS011;40919;43.236;21.590;2023-05-07T18:47:11;29.83;;;19.75;;
55015;SDS011;40919;43.236;21.590;2023-05-07T18:50:19;19.92;;;15.95;;
55015;SDS011;40919;43.236;21.590;2023-05-07T18:56:56;19.23;;;14.98;;
55015;SDS011;40919;43.236;21.590;2023-05-07T19:00:25;15.32;;;12.95;;
55015;SDS011;40919;43.236;21.590;2023-05-07T19:03:49;17.70;;;10.13;;
55015;SDS011;40919;43.236;21.590;2023-05-07T19:10:56;23.40;;;17.25;;
55015;SDS011;40919;43.236;21.590;2023-05-07T19:14:00;18.67;;;14.85;;
55015;SDS011;40919;43.236;21.590;2023-05-07T19:17:16;14.90;;;13.13;;
55015;SDS011;40919;43.236;21.590;2023-05-07T19:20:46;15.13;;;12.40;;
55015;SDS011;40919;43.236;21.590;2023-05-07T19:26:41;15.98;;;11.65;;
55015;SDS011;40919;43.236;21.590;2023-05-07T19:30:07;24.15;;;14.25;;
55015;SDS011;40919;43.236;21.590;2023-05-07T19:32:51;21.73;;;15.20;;
55015;SDS011;40919;43.236;21.590;2023-05-07T19:35:55;26.50;;;19.30;;
55015;SDS011;40919;43.236;21.590;2023-05-07T19:39:00;29.30;;;17.40;;
55015;SDS011;40919;43.236;21.590;2023-05-07T19:41:52;23.35;;;17.98;;
55015;SDS011;40919;43.236;21.590;2023-05-07T19:45:21;29.77;;;17.50;;
55015;SDS011;40919;43.236;21.590;2023-05-07T19:48:36;26.77;;;17.10;;
55015;SDS011;40919;43.236;21.590;2023-05-07T19:52:09;24.30;;;18.90;;
55015;SDS011;40919;43.236;21.590;2023-05-07T19:58:52;33.00;;;19.02;;
55015;SDS011;40919;43.236;21.590;2023-05-07T20:02:08;38.45;;;19.55;;
55015;SDS011;40919;43.236;21.590;2023-05-07T20:05:07;33.13;;;20.85;;
55015;SDS011;40919;43.236;21.590;2023-05-07T20:11:39;25.98;;;17.63;;
55015;SDS011;40919;43.236;21.590;2023-05-07T20:14:58;23.25;;;15.90;;
55015;SDS011;40919;43.236;21.590;2023-05-07T20:25:07;26.20;;;16.08;;
55015;SDS011;40919;43.236;21.590;2023-05-07T20:31:26;17.15;;;13.10;;
55015;SDS011;40919;43.236;21.590;2023-05-07T20:41:38;27.83;;;18.92;;
55015;SDS011;40919;43.236;21.590;2023-05-07T20:44:35;22.83;;;16.42;;
55015;SDS011;40919;43.236;21.590;2023-05-07T20:48:09;24.00;;;15.38;;
55015;SDS011;40919;43.236;21.590;2023-05-07T20:51:03;21.42;;;16.30;;
55015;SDS011;40919;43.236;21.590;2023-05-07T20:54:08;23.87;;;17.77;;
55015;SDS011;40919;43.236;21.590;2023-05-07T20:57:09;23.10;;;17.52;;
55015;SDS011;40919;43.236;21.590;2023-05-07T21:00:24;24.40;;;16.77;;
55015;SDS011;40919;43.236;21.590;2023-05-07T21:03:54;21.65;;;16.05;;
55015;SDS011;40919;43.236;21.590;2023-05-07T21:07:17;25.08;;;12.07;;
55015;SDS011;40919;43.236;21.590;2023-05-07T21:10:06;19.10;;;12.48;;
55015;SDS011;40919;43.236;21.590;2023-05-07T21:13:19;26.58;;;18.20;;
55015;SDS011;40919;43.236;21.590;2023-05-07T21:16:17;18.85;;;12.43;;
55015;SDS011;40919;43.236;21.590;2023-05-07T21:19:22;19.98;;;13.70;;
55015;SDS011;40919;43.236;21.590;2023-05-07T21:22:36;22.02;;;16.70;;
55015;SDS011;40919;43.236;21.590;2023-05-07T21:25:16;18.83;;;13.63;;
55015;SDS011;40919;43.236;21.590;2023-05-07T21:28:03;16.73;;;13.80;;
55015;SDS011;40919;43.236;21.590;2023-05-07T21:31:09;15.40;;;10.97;;
55015;SDS011;40919;43.236;21.590;2023-05-07T21:33:47;20.15;;;14.25;;
55015;SDS011;40919;43.236;21.590;2023-05-07T21:37:07;27.50;;;20.52;;
55015;SDS011;40919;43.236;21.590;2023-05-07T21:39:33;15.33;;;12.07;;
55015;SDS011;40919;43.236;21.590;2023-05-07T21:42:12;17.63;;;12.70;;
55015;SDS011;40919;43.236;21.590;2023-05-07T21:44:41;16.48;;;10.77;;
55015;SDS011;40919;43.236;21.590;2023-05-07T21:47:07;17.23;;;12.10;;
55015;SDS011;40919;43.236;21.590;2023-05-07T21:49:33;19.88;;;14.25;;
55015;SDS011;40919;43.236;21.590;2023-05-07T21:52:18;26.70;;;15.70;;
55015;SDS011;40919;43.236;21.590;2023-05-07T21:54:53;19.00;;;14.02;;
55015;SDS011;40919;43.236;21.590;2023-05-07T21:57:21;17.58;;;12.05;;
55015;SDS011;40919;43.236;21.590;2023-05-07T21:59:48;16.95;;;10.90;;
55015;SDS011;40919;43.236;21.590;2023-05-07T22:02:14;18.05;;;9.85;;
55015;SDS011;40919;43.236;21.590;2023-05-07T22:04:40;12.02;;;9.32;;
55015;SDS011;40919;43.236;21.590;2023-05-07T22:07:08;12.73;;;9.02;;
55015;SDS011;40919;43.236;21.590;2023-05-07T22:09:34;11.50;;;9.13;;
55015;SDS011;40919;43.236;21.590;2023-05-07T22:12:00;13.35;;;9.68;;
55015;SDS011;40919;43.236;21.590;2023-05-07T22:14:26;14.60;;;10.23;;
55015;SDS011;40919;43.236;21.590;2023-05-07T22:16:52;12.30;;;9.48;;
55015;SDS011;40919;43.236;21.590;2023-05-07T22:19:18;11.57;;;9.13;;
55015;SDS011;40919;43.236;21.590;2023-05-07T22:21:44;28.55;;;16.00;;
55015;SDS011;40919;43.236;21.590;2023-05-07T22:24:11;17.35;;;12.18;;
55015;SDS011;40919;43.236;21.590;2023-05-07T22:26:37;14.63;;;9.75;;
55015;SDS011;40919;43.236;21.590;2023-05-07T22:29:03;14.00;;;8.82;;
55015;SDS011;40919;43.236;21.590;2023-05-07T22:31:32;12.77;;;8.32;;
55015;SDS011;40919;43.236;21.590;2023-05-07T22:34:00;14.40;;;9.25;;
55015;SDS011;40919;43.236;21.590;2023-05-07T22:36:26;24.10;;;12.00;;
55015;SDS011;40919;43.236;21.590;2023-05-07T22:38:54;26.15;;;14.43;;
55015;SDS011;40919;43.236;21.590;2023-05-07T22:41:20;27.90;;;15.23;;
55015;SDS011;40919;43.236;21.590;2023-05-07T22:43:46;20.25;;;13.30;;
55015;SDS011;40919;43.236;21.590;2023-05-07T22:46:12;16.25;;;11.25;;
55015;SDS011;40919;43.236;21.590;2023-05-07T22:48:39;20.38;;;11.35;;
55015;SDS011;40919;43.236;21.590;2023-05-07T22:51:12;18.75;;;12.23;;
55015;SDS011;40919;43.236;21.590;2023-05-07T22:53:45;20.77;;;12.10;;
55015;SDS011;40919;43.236;21.590;2023-05-07T22:56:12;16.67;;;10.43;;
55015;SDS011;40919;43.236;21.590;2023-05-07T22:58:38;11.82;;;8.82;;
55015;SDS011;40919;43.236;21.590;2023-05-07T23:01:10;14.27;;;9.30;;
55015;SDS011;40919;43.236;21.590;2023-05-07T23:03:37;14.50;;;9.40;;
55015;SDS011;40919;43.236;21.590;2023-05-07T23:06:04;18.17;;;10.57;;
55015;SDS011;40919;43.236;21.590;2023-05-07T23:08:31;18.75;;;10.25;;
55015;SDS011;40919;43.236;21.590;2023-05-07T23:10:57;14.52;;;9.80;;
55015;SDS011;40919;43.236;21.590;2023-05-07T23:13:23;15.73;;;10.13;;
55015;SDS011;40919;43.236;21.590;2023-05-07T23:15:49;15.63;;;9.90;;
55015;SDS011;40919;43.236;21.590;2023-05-07T23:18:20;14.88;;;9.00;;
55015;SDS011;40919;43.236;21.590;2023-05-07T23:21:17;13.52;;;9.48;;
55015;SDS011;40919;43.236;21.590;2023-05-07T23:23:45;15.70;;;10.25;;
55015;SDS011;40919;43.236;21.590;2023-05-07T23:26:13;13.55;;;9.45;;
55015;SDS011;40919;43.236;21.590;2023-05-07T23:28:40;12.23;;;9.85;;
55015;SDS011;40919;43.236;21.590;2023-05-07T23:31:06;15.73;;;9.85;;
55015;SDS011;40919;43.236;21.590;2023-05-07T23:33:33;12.05;;;8.15;;
55015;SDS011;40919;43.236;21.590;2023-05-07T23:36:00;13.20;;;9.50;;
55015;SDS011;40919;43.236;21.590;2023-05-07T23:38:27;16.92;;;10.05;;
55015;SDS011;40919;43.236;21.590;2023-05-07T23:40:53;17.80;;;10.88;;
55015;SDS011;40919;43.236;21.590;2023-05-07T23:43:19;14.75;;;8.98;;
55015;SDS011;40919;43.236;21.590;2023-05-07T23:45:46;16.35;;;10.15;;
55015;SDS011;40919;43.236;21.590;2023-05-07T23:48:12;13.88;;;9.23;;
55015;SDS011;40919;43.236;21.590;2023-05-07T23:50:39;16.08;;;10.48;;
55015;SDS011;40919;43.236;21.590;2023-05-07T23:53:06;15.68;;;9.60;;
55015;SDS011;40919;43.236;21.590;2023-05-07T23:55:34;12.13;;;9.73;;
55015;SDS011;40919;43.236;21.590;2023-05-07T23:58:00;13.20;;;9.35;;
